createdAt,value
2017-04-23T00:00:54.158Z,1007.48
2017-04-23T00:01:54.172Z,1007.48
2017-04-23T00:02:54.188Z,1007.5
2017-04-23T00:03:54.204Z,1007.48
2017-04-23T00:04:54.220Z,1007.43
2017-04-23T00:05:54.236Z,1007.49
2017-04-23T00:06:54.250Z,1007.46
2017-04-23T00:07:54.284Z,1007.42
2017-04-23T00:08:54.281Z,1007.43
2017-04-23T00:09:54.299Z,1007.36
2017-04-23T00:10:54.332Z,1007.41
2017-04-23T00:11:54.329Z,1007.42
2017-04-23T00:12:54.344Z,1007.36
2017-04-23T00:13:54.359Z,1007.39
2017-04-23T00:14:54.372Z,1007.41
2017-04-23T00:15:54.390Z,1007.38
2017-04-23T00:16:54.404Z,1007.38
2017-04-23T00:17:54.419Z,1007.41
2017-04-23T00:18:54.436Z,1007.41
2017-04-23T00:19:54.450Z,1007.38
2017-04-23T00:20:54.466Z,1007.35
2017-04-23T00:21:54.481Z,1007.38
2017-04-23T00:22:54.497Z,1007.35
2017-04-23T00:23:54.511Z,1007.36
2017-04-23T00:24:54.529Z,1007.35
2017-04-23T00:25:54.542Z,1007.3
2017-04-23T00:26:54.558Z,1007.4
2017-04-23T00:27:54.572Z,1007.42
2017-04-23T00:28:54.587Z,1007.39
2017-04-23T00:29:54.601Z,1007.39
2017-04-23T00:30:54.617Z,1007.33
2017-04-23T00:31:54.634Z,1007.37
2017-04-23T00:32:54.649Z,1007.34
2017-04-23T00:33:54.664Z,1007.36
2017-04-23T00:34:54.681Z,1007.37
2017-04-23T00:35:54.695Z,1007.32
2017-04-23T00:36:54.710Z,1007.29
2017-04-23T00:37:54.727Z,1007.35
2017-04-23T00:38:54.741Z,1007.3
2017-04-23T00:39:54.757Z,1007.29
2017-04-23T00:40:54.770Z,1007.28
2017-04-23T00:41:54.786Z,1007.29
2017-04-23T00:42:54.802Z,1007.27
2017-04-23T00:43:54.822Z,1007.26
2017-04-23T00:44:54.832Z,1007.25
2017-04-23T00:45:54.848Z,1007.18
2017-04-23T00:46:54.862Z,1007.24
2017-04-23T00:47:54.878Z,1007.2
2017-04-23T00:48:54.894Z,1007.15
2017-04-23T00:49:54.908Z,1007.19
2017-04-23T00:50:54.923Z,1007.18
2017-04-23T00:51:54.940Z,1007.16
2017-04-23T00:52:54.953Z,1007.24
2017-04-23T00:53:54.970Z,1007.2
2017-04-23T00:54:54.986Z,1007.2
2017-04-23T00:55:55.000Z,1007.16
2017-04-23T00:56:55.014Z,1007.2
2017-04-23T00:57:55.031Z,1007.17
2017-04-23T00:58:55.047Z,1007.19
2017-04-23T00:59:55.060Z,1007.16
2017-04-23T01:00:55.075Z,1007.13
2017-04-23T01:01:55.091Z,1007.19
2017-04-23T01:02:55.106Z,1007.2
2017-04-23T01:03:55.121Z,1007.21
2017-04-23T01:04:55.138Z,1007.13
2017-04-23T01:05:55.150Z,1007.16
2017-04-23T01:06:55.170Z,1007.18
2017-04-23T01:07:55.184Z,1007.21
2017-04-23T01:08:55.202Z,1007.24
2017-04-23T01:09:55.211Z,1007.25
2017-04-23T01:10:55.226Z,1007.26
2017-04-23T01:11:55.241Z,1007.25
2017-04-23T01:12:55.259Z,1007.26
2017-04-23T01:13:55.273Z,1007.27
2017-04-23T01:14:55.287Z,1007.26
2017-04-23T01:15:55.302Z,1007.27
2017-04-23T01:16:55.317Z,1007.27
2017-04-23T01:17:55.333Z,1007.26
2017-04-23T01:18:55.348Z,1007.26
2017-04-23T01:19:55.363Z,1007.27
2017-04-23T01:20:55.382Z,1007.26
2017-04-23T01:21:55.392Z,1007.33
2017-04-23T01:22:55.408Z,1007.32
2017-04-23T01:23:55.426Z,1007.33
2017-04-23T01:24:55.437Z,1007.37
2017-04-23T01:25:55.454Z,1007.35
2017-04-23T01:26:55.467Z,1007.34
2017-04-23T01:27:55.484Z,1007.28
2017-04-23T01:28:55.498Z,1007.3
2017-04-23T01:29:55.512Z,1007.29
2017-04-23T01:30:55.526Z,1007.27
2017-04-23T01:31:55.543Z,1007.32
2017-04-23T01:32:55.557Z,1007.31
2017-04-23T01:33:55.574Z,1007.25
2017-04-23T01:34:55.588Z,1007.33
2017-04-23T01:35:55.602Z,1007.33
2017-04-23T01:36:55.617Z,1007.31
2017-04-23T01:37:55.633Z,1007.3
2017-04-23T01:38:55.647Z,1007.31
2017-04-23T01:39:55.661Z,1007.36
2017-04-23T01:40:55.677Z,1007.35
2017-04-23T01:41:55.691Z,1007.34
2017-04-23T01:42:55.705Z,1007.35
2017-04-23T01:43:55.722Z,1007.35
2017-04-23T01:44:55.738Z,1007.37
2017-04-23T01:45:55.751Z,1007.41
2017-04-23T01:46:55.768Z,1007.42
2017-04-23T01:47:55.781Z,1007.43
2017-04-23T01:48:55.796Z,1007.42
2017-04-23T01:49:55.811Z,1007.44
2017-04-23T01:50:55.826Z,1007.45
2017-04-23T01:51:55.840Z,1007.43
2017-04-23T01:52:55.855Z,1007.45
2017-04-23T01:53:55.870Z,1007.42
2017-04-23T01:54:55.889Z,1007.41
2017-04-23T01:55:55.900Z,1007.36
2017-04-23T01:56:55.917Z,1007.39
2017-04-23T01:57:55.931Z,1007.43
2017-04-23T01:58:55.946Z,1007.43
2017-04-23T01:59:55.964Z,1007.42
2017-04-23T02:00:55.976Z,1007.4
2017-04-23T02:01:55.989Z,1007.45
2017-04-23T02:02:56.006Z,1007.39
2017-04-23T02:03:56.021Z,1007.4
2017-04-23T02:04:56.133Z,1007.38
2017-04-23T02:05:56.052Z,1007.37
2017-04-23T02:06:56.064Z,1007.4
2017-04-23T02:07:56.079Z,1007.39
2017-04-23T02:08:56.095Z,1007.4
2017-04-23T02:09:56.160Z,1007.38
2017-04-23T02:10:56.124Z,1007.35
2017-04-23T02:11:56.139Z,1007.36
2017-04-23T02:12:56.154Z,1007.35
2017-04-23T02:13:56.169Z,1007.36
2017-04-23T02:14:56.270Z,1007.34
2017-04-23T02:15:56.198Z,1007.33
2017-04-23T02:16:56.214Z,1007.34
2017-04-23T02:17:56.230Z,1007.34
2017-04-23T02:18:56.242Z,1007.36
2017-04-23T02:19:56.258Z,1007.35
2017-04-23T02:20:56.273Z,1007.4
2017-04-23T02:21:56.287Z,1007.38
2017-04-23T02:22:56.302Z,1007.37
2017-04-23T02:23:56.317Z,1007.4
2017-04-23T02:24:56.330Z,1007.44
2017-04-23T02:25:56.347Z,1007.47
2017-04-23T02:26:56.362Z,1007.45
2017-04-23T02:27:56.379Z,1007.39
2017-04-23T02:28:56.390Z,1007.39
2017-04-23T02:29:56.407Z,1007.42
2017-04-23T02:30:56.421Z,1007.44
2017-04-23T02:31:56.435Z,1007.41
2017-04-23T02:32:56.451Z,1007.44
2017-04-23T02:33:56.554Z,1007.42
2017-04-23T02:34:56.484Z,1007.44
2017-04-23T02:35:56.496Z,1007.39
2017-04-23T02:36:56.510Z,1007.43
2017-04-23T02:37:56.524Z,1007.46
2017-04-23T02:38:56.539Z,1007.47
2017-04-23T02:39:56.554Z,1007.41
2017-04-23T02:40:56.569Z,1007.45
2017-04-23T02:41:56.582Z,1007.44
2017-04-23T02:42:56.599Z,1007.46
2017-04-23T02:43:56.614Z,1007.47
2017-04-23T02:44:56.629Z,1007.46
2017-04-23T02:45:56.643Z,1007.47
2017-04-23T02:46:56.659Z,1007.45
2017-04-23T02:47:56.673Z,1007.43
2017-04-23T02:48:56.687Z,1007.45
2017-04-23T02:49:56.703Z,1007.43
2017-04-23T02:50:56.717Z,1007.47
2017-04-23T02:51:56.731Z,1007.44
2017-04-23T02:52:56.748Z,1007.45
2017-04-23T02:53:56.762Z,1007.45
2017-04-23T02:54:56.778Z,1007.48
2017-04-23T02:55:56.880Z,1007.45
2017-04-23T02:56:56.806Z,1007.42
2017-04-23T02:57:56.821Z,1007.48
2017-04-23T02:58:56.837Z,1007.45
2017-04-23T02:59:56.850Z,1007.46
2017-04-23T03:00:56.865Z,1007.42
2017-04-23T03:01:56.880Z,1007.42
2017-04-23T03:02:56.896Z,1007.46
2017-04-23T03:03:56.908Z,1007.51
2017-04-23T03:04:56.925Z,1007.46
2017-04-23T03:05:56.938Z,1007.52
2017-04-23T03:06:56.952Z,1007.49
2017-04-23T03:07:56.968Z,1007.52
2017-04-23T03:08:56.982Z,1007.55
2017-04-23T03:09:56.997Z,1007.5
2017-04-23T03:10:57.012Z,1007.52
2017-04-23T03:11:57.028Z,1007.53
2017-04-23T03:12:57.043Z,1007.56
2017-04-23T03:13:57.055Z,1007.53
2017-04-23T03:14:57.070Z,1007.56
2017-04-23T03:15:57.086Z,1007.51
2017-04-23T03:16:57.100Z,1007.52
2017-04-23T03:17:57.114Z,1007.56
2017-04-23T03:18:57.132Z,1007.48
2017-04-23T03:19:57.145Z,1007.53
2017-04-23T03:20:57.161Z,1007.48
2017-04-23T03:21:57.177Z,1007.54
2017-04-23T03:22:57.189Z,1007.56
2017-04-23T03:23:57.203Z,1007.49
2017-04-23T03:24:57.223Z,1007.52
2017-04-23T03:25:57.231Z,1007.52
2017-04-23T03:26:57.246Z,1007.55
2017-04-23T03:27:57.261Z,1007.55
2017-04-23T03:28:57.275Z,1007.52
2017-04-23T03:29:57.289Z,1007.55
2017-04-23T03:30:57.306Z,1007.56
2017-04-23T03:31:57.320Z,1007.56
2017-04-23T03:32:57.333Z,1007.56
2017-04-23T03:33:57.348Z,1007.54
2017-04-23T03:34:57.364Z,1007.64
2017-04-23T03:35:57.378Z,1007.56
2017-04-23T03:36:57.394Z,1007.55
2017-04-23T03:37:57.408Z,1007.56
2017-04-23T03:38:57.422Z,1007.56
2017-04-23T03:39:57.435Z,1007.62
2017-04-23T03:40:57.452Z,1007.6
2017-04-23T03:41:57.466Z,1007.62
2017-04-23T03:42:57.481Z,1007.64
2017-04-23T03:43:57.496Z,1007.65
2017-04-23T03:44:57.513Z,1007.66
2017-04-23T03:45:57.525Z,1007.64
2017-04-23T03:46:57.539Z,1007.64
2017-04-23T03:47:57.559Z,1007.67
2017-04-23T03:48:57.568Z,1007.69
2017-04-23T03:49:57.584Z,1007.64
2017-04-23T03:50:57.596Z,1007.63
2017-04-23T03:51:57.612Z,1007.61
2017-04-23T03:52:57.627Z,1007.64
2017-04-23T03:53:57.641Z,1007.64
2017-04-23T03:54:57.655Z,1007.58
2017-04-23T03:55:57.669Z,1007.65
2017-04-23T03:56:57.686Z,1007.66
2017-04-23T03:57:57.699Z,1007.7
2017-04-23T03:58:57.713Z,1007.74
2017-04-23T03:59:57.728Z,1007.71
2017-04-23T04:00:57.743Z,1007.69
2017-04-23T04:01:57.758Z,1007.67
2017-04-23T04:02:57.772Z,1007.67
2017-04-23T04:03:57.787Z,1007.66
2017-04-23T04:04:57.802Z,1007.66
2017-04-23T04:05:57.818Z,1007.68
2017-04-23T04:06:57.832Z,1007.69
2017-04-23T04:07:57.847Z,1007.73
2017-04-23T04:08:57.861Z,1007.73
2017-04-23T04:09:57.876Z,1007.73
2017-04-23T04:10:57.888Z,1007.68
2017-04-23T04:11:57.906Z,1007.72
2017-04-23T04:12:57.920Z,1007.77
2017-04-23T04:13:57.934Z,1007.76
2017-04-23T04:14:57.948Z,1007.72
2017-04-23T04:15:57.961Z,1007.82
2017-04-23T04:16:57.977Z,1007.78
2017-04-23T04:17:58.048Z,1007.77
2017-04-23T04:18:58.008Z,1007.8
2017-04-23T04:19:58.021Z,1007.79
2017-04-23T04:20:58.036Z,1007.85
2017-04-23T04:21:58.050Z,1007.83
2017-04-23T04:22:58.065Z,1007.88
2017-04-23T04:23:58.081Z,1007.85
2017-04-23T04:24:58.094Z,1007.86
2017-04-23T04:25:58.127Z,1007.9
2017-04-23T04:26:58.122Z,1007.87
2017-04-23T04:27:58.136Z,1007.88
2017-04-23T04:28:58.152Z,1007.92
2017-04-23T04:29:58.168Z,1007.91
2017-04-23T04:30:58.180Z,1007.92
2017-04-23T04:31:58.194Z,1007.91
2017-04-23T04:32:58.211Z,1007.95
2017-04-23T04:33:58.225Z,1007.96
2017-04-23T04:34:58.241Z,1007.96
2017-04-23T04:35:58.253Z,1008.01
2017-04-23T04:36:58.268Z,1008.02
2017-04-23T04:37:58.282Z,1007.96
2017-04-23T04:38:58.299Z,1008.02
2017-04-23T04:39:58.316Z,1007.99
2017-04-23T04:40:58.327Z,1008.05
2017-04-23T04:41:58.340Z,1008.1
2017-04-23T04:42:58.356Z,1008.11
2017-04-23T04:43:58.369Z,1008.1
2017-04-23T04:44:58.387Z,1008.07
2017-04-23T04:45:58.400Z,1008.1
2017-04-23T04:46:58.417Z,1008.12
2017-04-23T04:47:58.428Z,1008.11
2017-04-23T04:48:58.442Z,1008.14
2017-04-23T04:49:58.456Z,1008.13
2017-04-23T04:50:58.474Z,1008.18
2017-04-23T04:51:58.486Z,1008.14
2017-04-23T04:52:58.499Z,1008.15
2017-04-23T04:53:58.517Z,1008.16
2017-04-23T04:54:58.531Z,1008.16
2017-04-23T04:55:58.545Z,1008.21
2017-04-23T04:56:58.559Z,1008.19
2017-04-23T04:57:58.573Z,1008.23
2017-04-23T04:58:58.588Z,1008.19
2017-04-23T04:59:58.602Z,1008.22
2017-04-23T05:00:58.619Z,1008.24
2017-04-23T05:01:58.634Z,1008.21
2017-04-23T05:02:58.646Z,1008.23
2017-04-23T05:03:58.662Z,1008.19
2017-04-23T05:04:58.679Z,1008.25
2017-04-23T05:05:58.690Z,1008.27
2017-04-23T05:06:58.708Z,1008.24
2017-04-23T05:07:58.721Z,1008.28
2017-04-23T05:08:58.736Z,1008.28
2017-04-23T05:09:58.748Z,1008.25
2017-04-23T05:10:58.762Z,1008.24
2017-04-23T05:11:58.779Z,1008.31
2017-04-23T05:12:58.794Z,1008.34
2017-04-23T05:13:58.808Z,1008.32
2017-04-23T05:14:58.823Z,1008.3
2017-04-23T05:15:58.838Z,1008.28
2017-04-23T05:16:58.852Z,1008.3
2017-04-23T05:17:58.867Z,1008.28
2017-04-23T05:18:58.883Z,1008.27
2017-04-23T05:19:58.896Z,1008.33
2017-04-23T05:20:58.910Z,1008.34
2017-04-23T05:21:58.925Z,1008.28
2017-04-23T05:22:58.939Z,1008.33
2017-04-23T05:23:58.954Z,1008.35
2017-04-23T05:24:58.971Z,1008.37
2017-04-23T05:25:58.982Z,1008.37
2017-04-23T05:26:58.999Z,1008.39
2017-04-23T05:27:59.016Z,1008.38
2017-04-23T05:28:59.029Z,1008.38
2017-04-23T05:29:59.043Z,1008.42
2017-04-23T05:30:59.055Z,1008.41
2017-04-23T05:31:59.070Z,1008.41
2017-04-23T05:32:59.092Z,1008.39
2017-04-23T05:33:59.102Z,1008.42
2017-04-23T05:34:59.122Z,1008.42
2017-04-23T05:35:59.129Z,1008.44
2017-04-23T05:36:59.145Z,1008.46
2017-04-23T05:37:59.160Z,1008.51
2017-04-23T05:38:59.175Z,1008.46
2017-04-23T05:39:59.189Z,1008.47
2017-04-23T05:40:59.205Z,1008.52
2017-04-23T05:41:59.221Z,1008.56
2017-04-23T05:42:59.235Z,1008.54
2017-04-23T05:43:59.251Z,1008.56
2017-04-23T05:44:59.263Z,1008.53
2017-04-23T05:45:59.278Z,1008.54
2017-04-23T05:46:59.293Z,1008.56
2017-04-23T05:47:59.308Z,1008.63
2017-04-23T05:48:59.323Z,1008.57
2017-04-23T05:49:59.338Z,1008.59
2017-04-23T05:50:59.352Z,1008.57
2017-04-23T05:51:59.365Z,1008.68
2017-04-23T05:52:59.382Z,1008.63
2017-04-23T05:53:59.397Z,1008.64
2017-04-23T05:54:59.412Z,1008.65
2017-04-23T05:55:59.426Z,1008.67
2017-04-23T05:56:59.440Z,1008.68
2017-04-23T05:57:59.456Z,1008.65
2017-04-23T05:58:59.469Z,1008.68
2017-04-23T05:59:59.484Z,1008.69
2017-04-23T06:00:59.501Z,1008.67
2017-04-23T06:01:59.514Z,1008.69
2017-04-23T06:02:59.530Z,1008.7
2017-04-23T06:03:59.544Z,1008.74
2017-04-23T06:04:59.559Z,1008.72
2017-04-23T06:05:59.573Z,1008.75
2017-04-23T06:06:59.589Z,1008.74
2017-04-23T06:07:59.605Z,1008.75
2017-04-23T06:08:59.618Z,1008.78
2017-04-23T06:09:59.639Z,1008.74
2017-04-23T06:10:59.646Z,1008.79
2017-04-23T06:11:59.662Z,1008.8
2017-04-23T06:12:59.694Z,1008.8
2017-04-23T06:13:59.697Z,1008.86
2017-04-23T06:14:59.707Z,1008.81
2017-04-23T06:15:59.721Z,1008.8
2017-04-23T06:16:59.735Z,1008.81
2017-04-23T06:17:59.751Z,1008.82
2017-04-23T06:18:59.768Z,1008.85
2017-04-23T06:19:59.782Z,1008.84
2017-04-23T06:20:59.794Z,1008.87
2017-04-23T06:21:59.810Z,1008.83
2017-04-23T06:22:59.824Z,1008.83
2017-04-23T06:23:59.840Z,1008.82
2017-04-23T06:24:59.854Z,1008.87
2017-04-23T06:25:59.874Z,1008.86
2017-04-23T06:26:59.884Z,1008.89
2017-04-23T06:27:59.898Z,1008.92
2017-04-23T06:28:59.915Z,1008.87
2017-04-23T06:29:59.930Z,1008.9
2017-04-23T06:30:59.943Z,1008.89
2017-04-23T06:31:59.958Z,1008.88
2017-04-23T06:32:59.976Z,1008.88
2017-04-23T06:33:59.989Z,1008.92
2017-04-23T06:35:00.005Z,1008.9
2017-04-23T06:36:00.017Z,1008.9
2017-04-23T06:37:00.033Z,1008.91
2017-04-23T06:38:00.047Z,1008.9
2017-04-23T06:39:00.062Z,1008.91
2017-04-23T06:40:00.077Z,1008.96
2017-04-23T06:41:00.091Z,1008.92
2017-04-23T06:42:00.109Z,1008.93
2017-04-23T06:43:00.126Z,1008.95
2017-04-23T06:44:00.138Z,1008.96
2017-04-23T06:45:00.154Z,1008.95
2017-04-23T06:46:00.167Z,1008.89
2017-04-23T06:47:00.181Z,1008.93
2017-04-23T06:48:00.197Z,1008.92
2017-04-23T06:49:00.213Z,1008.94
2017-04-23T06:50:00.228Z,1008.95
2017-04-23T06:51:00.245Z,1008.94
2017-04-23T06:52:00.269Z,1009
2017-04-23T06:53:00.273Z,1008.89
2017-04-23T06:54:00.289Z,1008.93
2017-04-23T06:55:00.303Z,1008.96
2017-04-23T06:56:00.317Z,1008.91
2017-04-23T06:57:00.333Z,1008.93
2017-04-23T06:58:00.348Z,1008.95
2017-04-23T06:59:00.365Z,1008.91
2017-04-23T07:00:00.379Z,1008.93
2017-04-23T07:01:00.392Z,1008.96
2017-04-23T07:02:00.408Z,1008.94
2017-04-23T07:03:00.434Z,1008.98
2017-04-23T07:04:00.439Z,1008.95
2017-04-23T07:05:00.456Z,1009.01
2017-04-23T07:06:00.484Z,1009.01
2017-04-23T07:07:00.491Z,1009
2017-04-23T07:08:00.500Z,1009.01
2017-04-23T07:09:00.517Z,1008.98
2017-04-23T07:10:00.530Z,1009
2017-04-23T07:11:00.546Z,1009
2017-04-23T07:12:00.560Z,1008.98
2017-04-23T07:13:00.576Z,1009.04
2017-04-23T07:14:00.593Z,1009.02
2017-04-23T07:15:00.808Z,1008.97
2017-04-23T07:16:00.630Z,1009.02
2017-04-23T07:17:00.637Z,1009.01
2017-04-23T07:18:00.653Z,1008.98
2017-04-23T07:19:00.667Z,1009.01
2017-04-23T07:20:00.684Z,1009.07
2017-04-23T07:21:00.699Z,1009.08
2017-04-23T07:22:00.722Z,1009.06
2017-04-23T07:23:00.735Z,1009.08
2017-04-23T07:24:00.749Z,1009.11
2017-04-23T07:25:00.760Z,1009.08
2017-04-23T07:26:00.774Z,1009.03
2017-04-23T07:27:00.790Z,1009.08
2017-04-23T07:28:00.814Z,1009.07
2017-04-23T07:29:00.821Z,1009.06
2017-04-23T07:30:00.842Z,1009.07
2017-04-23T07:31:00.852Z,1009.1
2017-04-23T07:32:00.870Z,1009.16
2017-04-23T07:33:00.881Z,1009.13
2017-04-23T07:34:00.897Z,1009.16
2017-04-23T07:35:00.913Z,1009.16
2017-04-23T07:36:00.935Z,1009.12
2017-04-23T07:37:00.942Z,1009.11
2017-04-23T07:38:01.012Z,1009.16
2017-04-23T07:39:00.974Z,1009.12
2017-04-23T07:40:00.989Z,1009.13
2017-04-23T07:41:01.005Z,1009.17
2017-04-23T07:42:01.029Z,1009.11
2017-04-23T07:43:01.038Z,1009.12
2017-04-23T07:44:01.055Z,1009.17
2017-04-23T07:45:01.100Z,1009.18
2017-04-23T07:46:01.082Z,1009.15
2017-04-23T07:47:01.100Z,1009.15
2017-04-23T07:48:01.111Z,1009.13
2017-04-23T07:49:01.127Z,1009.15
2017-04-23T07:50:01.148Z,1009.14
2017-04-23T07:51:01.159Z,1009.16
2017-04-23T07:52:01.174Z,1009.15
2017-04-23T07:53:01.190Z,1009.19
2017-04-23T07:54:01.206Z,1009.17
2017-04-23T07:55:01.220Z,1009.2
2017-04-23T07:56:01.236Z,1009.24
2017-04-23T07:57:01.252Z,1009.3
2017-04-23T07:58:01.268Z,1009.3
2017-04-23T07:59:01.284Z,1009.37
2017-04-23T08:00:01.304Z,1009.29
2017-04-23T08:01:01.314Z,1009.3
2017-04-23T08:02:01.330Z,1009.38
2017-04-23T08:03:01.349Z,1009.37
2017-04-23T08:04:01.360Z,1009.32
2017-04-23T08:05:01.376Z,1009.36
2017-04-23T08:06:01.398Z,1009.35
2017-04-23T08:07:01.406Z,1009.38
2017-04-23T08:08:01.423Z,1009.35
2017-04-23T08:09:01.441Z,1009.36
2017-04-23T08:10:01.452Z,1009.34
2017-04-23T08:11:01.468Z,1009.31
2017-04-23T08:12:01.485Z,1009.29
2017-04-23T08:13:01.501Z,1009.28
2017-04-23T08:14:01.517Z,1009.3
2017-04-23T08:15:01.532Z,1009.25
2017-04-23T08:16:01.549Z,1009.25
2017-04-23T08:17:01.562Z,1009.23
2017-04-23T08:18:01.577Z,1009.27
2017-04-23T08:19:01.596Z,1009.29
2017-04-23T08:20:01.610Z,1009.29
2017-04-23T08:21:01.627Z,1009.25
2017-04-23T08:22:01.642Z,1009.29
2017-04-23T08:23:01.657Z,1009.3
2017-04-23T08:24:01.674Z,1009.31
2017-04-23T08:25:01.689Z,1009.3
2017-04-23T08:26:01.709Z,1009.3
2017-04-23T08:27:01.722Z,1009.25
2017-04-23T08:28:01.752Z,1009.23
2017-04-23T08:29:01.751Z,1009.23
2017-04-23T08:30:01.771Z,1009.27
2017-04-23T08:31:01.783Z,1009.25
2017-04-23T08:32:01.799Z,1009.25
2017-04-23T08:33:01.815Z,1009.28
2017-04-23T08:34:01.837Z,1009.26
2017-04-23T08:35:01.851Z,1009.28
2017-04-23T08:36:01.862Z,1009.27
2017-04-23T08:37:01.880Z,1009.25
2017-04-23T08:38:01.895Z,1009.29
2017-04-23T08:39:01.911Z,1009.27
2017-04-23T08:40:01.925Z,1009.24
2017-04-23T08:41:01.943Z,1009.23
2017-04-23T08:42:01.960Z,1009.32
2017-04-23T08:43:01.975Z,1009.32
2017-04-23T08:44:01.993Z,1009.3
2017-04-23T08:45:02.005Z,1009.28
2017-04-23T08:46:02.045Z,1009.23
2017-04-23T08:47:02.038Z,1009.24
2017-04-23T08:48:02.054Z,1009.26
2017-04-23T08:49:02.069Z,1009.34
2017-04-23T08:50:02.086Z,1009.38
2017-04-23T08:51:02.103Z,1009.31
2017-04-23T08:52:02.122Z,1009.47
2017-04-23T08:53:02.134Z,1009.46
2017-04-23T08:54:02.150Z,1009.43
2017-04-23T08:55:02.166Z,1009.38
2017-04-23T08:56:02.183Z,1009.37
2017-04-23T08:57:02.200Z,1009.39
2017-04-23T08:58:02.214Z,1009.39
2017-04-23T08:59:02.231Z,1009.41
2017-04-23T09:00:02.257Z,1009.37
2017-04-23T09:01:02.262Z,1009.33
2017-04-23T09:02:02.287Z,1009.33
2017-04-23T09:03:02.305Z,1009.3
2017-04-23T09:04:02.311Z,1009.29
2017-04-23T09:05:02.327Z,1009.25
2017-04-23T09:06:02.341Z,1009.29
2017-04-23T09:07:02.358Z,1009.28
2017-04-23T09:08:02.376Z,1009.3
2017-04-23T09:09:02.389Z,1009.27
2017-04-23T09:10:02.407Z,1009.29
2017-04-23T09:11:02.422Z,1009.23
2017-04-23T09:12:02.438Z,1009.17
2017-04-23T09:13:02.453Z,1009.19
2017-04-23T09:14:02.470Z,1009.11
2017-04-23T09:15:02.487Z,1009.14
2017-04-23T09:16:02.501Z,1009.15
2017-04-23T09:17:02.519Z,1009.13
2017-04-23T09:18:02.535Z,1009.18
2017-04-23T09:19:02.550Z,1009.12
2017-04-23T09:20:02.571Z,1009.1
2017-04-23T09:21:02.581Z,1009.13
2017-04-23T09:22:02.599Z,1009.15
2017-04-23T09:23:02.615Z,1009.12
2017-04-23T09:24:02.637Z,1009.11
2017-04-23T09:25:02.646Z,1009.14
2017-04-23T09:26:02.662Z,1009.16
2017-04-23T09:27:02.681Z,1009.12
2017-04-23T09:28:02.694Z,1009.11
2017-04-23T09:29:02.711Z,1009.12
2017-04-23T09:30:02.731Z,1009.1
2017-04-23T09:31:02.743Z,1009.08
2017-04-23T09:32:02.761Z,1009.09
2017-04-23T09:33:02.776Z,1009.15
2017-04-23T09:34:02.795Z,1009.06
2017-04-23T09:35:02.824Z,1009
2017-04-23T09:36:02.824Z,1009.04
2017-04-23T09:37:02.847Z,1009.06
2017-04-23T09:38:02.857Z,1009.07
2017-04-23T09:39:02.875Z,1009.03
2017-04-23T09:40:02.902Z,1008.96
2017-04-23T09:41:02.911Z,1009.02
2017-04-23T09:42:02.924Z,1008.95
2017-04-23T09:43:02.941Z,1008.96
2017-04-23T09:44:02.983Z,1008.95
2017-04-23T09:45:02.983Z,1008.98
2017-04-23T09:46:02.995Z,1009.06
2017-04-23T09:47:03.009Z,1009
2017-04-23T09:48:03.144Z,1009.08
2017-04-23T09:49:03.040Z,1009.1
2017-04-23T09:50:03.151Z,1009.16
2017-04-23T09:51:03.077Z,1009.21
2017-04-23T09:52:03.090Z,1009.21
2017-04-23T09:53:03.107Z,1009.27
2017-04-23T09:54:03.123Z,1009.24
2017-04-23T09:55:03.140Z,1009.26
2017-04-23T09:56:03.158Z,1009.24
2017-04-23T09:57:03.174Z,1009.26
2017-04-23T09:58:03.192Z,1009.19
2017-04-23T09:59:03.211Z,1009.25
2017-04-23T10:00:03.224Z,1009.2
2017-04-23T10:01:03.242Z,1009.16
2017-04-23T10:02:03.260Z,1009.22
2017-04-23T10:03:03.276Z,1009.21
2017-04-23T10:04:03.293Z,1009.24
2017-04-23T10:05:03.310Z,1009.21
2017-04-23T10:06:03.326Z,1009.2
2017-04-23T10:07:03.342Z,1009.13
2017-04-23T10:08:03.359Z,1009.12
2017-04-23T10:09:03.376Z,1009.14
2017-04-23T10:10:03.394Z,1009.18
2017-04-23T10:11:03.410Z,1009.15
2017-04-23T10:12:03.427Z,1009.14
2017-04-23T10:13:03.444Z,1009.16
2017-04-23T10:14:03.461Z,1009.18
2017-04-23T10:15:03.478Z,1009.15
2017-04-23T10:16:03.497Z,1009.21
2017-04-23T10:17:03.513Z,1009.25
2017-04-23T10:18:03.528Z,1009.21
2017-04-23T10:19:03.549Z,1009.27
2017-04-23T10:20:03.567Z,1009.35
2017-04-23T10:21:03.581Z,1009.32
2017-04-23T10:22:03.596Z,1009.28
2017-04-23T10:23:03.614Z,1009.27
2017-04-23T10:24:03.632Z,1009.28
2017-04-23T10:25:03.649Z,1009.21
2017-04-23T10:26:03.665Z,1009.22
2017-04-23T10:27:03.683Z,1009.16
2017-04-23T10:28:03.699Z,1009.16
2017-04-23T10:29:03.716Z,1009.21
2017-04-23T10:30:03.734Z,1009.22
2017-04-23T10:31:03.750Z,1009.28
2017-04-23T10:32:03.768Z,1009.19
2017-04-23T10:33:03.784Z,1009.18
2017-04-23T10:34:03.804Z,1009.22
2017-04-23T10:35:03.818Z,1009.18
2017-04-23T10:36:03.834Z,1009.23
2017-04-23T10:37:03.850Z,1009.13
2017-04-23T10:38:03.978Z,1009.09
2017-04-23T10:39:03.889Z,1009.07
2017-04-23T10:40:04.055Z,1008.98
2017-04-23T10:41:04.042Z,1008.94
2017-04-23T10:42:04.039Z,1008.98
2017-04-23T10:43:04.048Z,1008.92
2017-04-23T10:44:04.081Z,1008.94
2017-04-23T10:45:04.229Z,1008.91
2017-04-23T10:46:04.100Z,1008.91
2017-04-23T10:47:04.098Z,1008.9
2017-04-23T10:48:04.105Z,1008.9
2017-04-23T10:49:04.115Z,1008.86
2017-04-23T10:50:04.074Z,1008.91
2017-04-23T10:51:04.090Z,1008.93
2017-04-23T10:52:04.111Z,1008.89
2017-04-23T10:53:04.124Z,1008.92
2017-04-23T10:54:04.141Z,1008.9
2017-04-23T10:55:04.159Z,1008.92
2017-04-23T10:56:04.176Z,1008.91
2017-04-23T10:57:04.194Z,1008.88
2017-04-23T10:58:04.211Z,1008.9
2017-04-23T10:59:04.254Z,1008.92
2017-04-23T11:00:04.243Z,1008.9
2017-04-23T11:01:04.260Z,1008.86
2017-04-23T11:02:04.278Z,1008.87
2017-04-23T11:03:04.294Z,1008.85
2017-04-23T11:04:04.311Z,1008.88
2017-04-23T11:05:04.330Z,1008.83
2017-04-23T11:06:04.345Z,1008.78
2017-04-23T11:07:04.363Z,1008.8
2017-04-23T11:08:04.381Z,1008.8
2017-04-23T11:09:04.398Z,1008.77
2017-04-23T11:10:04.415Z,1008.81
2017-04-23T11:11:04.433Z,1008.76
2017-04-23T11:12:04.449Z,1008.74
2017-04-23T11:13:04.465Z,1008.68
2017-04-23T11:14:04.485Z,1008.63
2017-04-23T11:15:04.500Z,1008.63
2017-04-23T11:16:04.522Z,1008.64
2017-04-23T11:17:04.535Z,1008.63
2017-04-23T11:18:04.553Z,1008.63
2017-04-23T11:19:04.570Z,1008.61
2017-04-23T11:20:04.587Z,1008.62
2017-04-23T11:21:04.606Z,1008.65
2017-04-23T11:22:04.623Z,1008.65
2017-04-23T11:23:04.640Z,1008.67
2017-04-23T11:24:04.657Z,1008.61
2017-04-23T11:25:04.674Z,1008.64
2017-04-23T11:26:04.693Z,1008.54
2017-04-23T11:27:04.711Z,1008.57
2017-04-23T11:28:04.726Z,1008.57
2017-04-23T11:29:04.745Z,1008.6
2017-04-23T11:30:04.763Z,1008.57
2017-04-23T11:31:04.782Z,1008.53
2017-04-23T11:32:04.800Z,1008.53
2017-04-23T11:33:04.816Z,1008.56
2017-04-23T11:34:04.834Z,1008.55
2017-04-23T11:35:04.851Z,1008.54
2017-04-23T11:36:04.869Z,1008.52
2017-04-23T11:37:04.887Z,1008.53
2017-04-23T11:38:04.926Z,1008.55
2017-04-23T11:39:04.922Z,1008.5
2017-04-23T11:40:04.941Z,1008.55
2017-04-23T11:41:04.958Z,1008.52
2017-04-23T11:42:05.005Z,1008.57
2017-04-23T11:43:04.992Z,1008.51
2017-04-23T11:44:05.010Z,1008.52
2017-04-23T11:45:05.035Z,1008.55
2017-04-23T11:46:05.045Z,1008.54
2017-04-23T11:47:05.063Z,1008.62
2017-04-23T11:48:05.172Z,1008.58
2017-04-23T11:49:05.183Z,1008.55
2017-04-23T11:50:05.181Z,1008.57
2017-04-23T11:51:05.187Z,1008.63
2017-04-23T11:52:05.153Z,1008.57
2017-04-23T11:53:05.171Z,1008.57
2017-04-23T11:54:05.188Z,1008.53
2017-04-23T11:55:05.206Z,1008.51
2017-04-23T11:56:05.224Z,1008.53
2017-04-23T11:57:05.246Z,1008.5
2017-04-23T11:58:05.259Z,1008.44
2017-04-23T11:59:05.279Z,1008.51
2017-04-23T12:00:05.296Z,1008.44
2017-04-23T12:01:05.313Z,1008.51
2017-04-23T12:02:05.332Z,1008.5
2017-04-23T12:03:05.351Z,1008.5
2017-04-23T12:04:05.368Z,1008.56
2017-04-23T12:05:05.386Z,1008.49
2017-04-23T12:06:05.408Z,1008.54
2017-04-23T12:07:05.421Z,1008.49
2017-04-23T12:08:05.439Z,1008.5
2017-04-23T12:09:05.456Z,1008.48